sensor_id;sensor_type;location;lat;lon;timestamp;temperature;humidity
77177;DHT22;66158;44.744;16.712;2022-12-18T00:02:10;20.50;45.20
77177;DHT22;66158;44.744;16.712;2022-12-18T00:04:36;20.40;45.30
77177;DHT22;66158;44.744;16.712;2022-12-18T00:07:02;20.40;45.30
77177;DHT22;66158;44.744;16.712;2022-12-18T00:09:28;20.40;45.40
77177;DHT22;66158;44.744;16.712;2022-12-18T00:11:54;20.40;45.60
77177;DHT22;66158;44.744;16.712;2022-12-18T00:14:20;20.30;45.40
77177;DHT22;66158;44.744;16.712;2022-12-18T00:16:46;20.30;45.50
77177;DHT22;66158;44.744;16.712;2022-12-18T00:19:13;20.20;45.70
77177;DHT22;66158;44.744;16.712;2022-12-18T00:21:40;20.20;45.50
77177;DHT22;66158;44.744;16.712;2022-12-18T00:24:06;20.10;45.30
77177;DHT22;66158;44.744;16.712;2022-12-18T00:26:33;20.00;45.60
77177;DHT22;66158;44.744;16.712;2022-12-18T00:29:02;19.90;45.80
77177;DHT22;66158;44.744;16.712;2022-12-18T00:31:28;19.90;46.40
77177;DHT22;66158;44.744;16.712;2022-12-18T00:33:55;19.80;45.90
77177;DHT22;66158;44.744;16.712;2022-12-18T00:36:26;19.80;46.00
77177;DHT22;66158;44.744;16.712;2022-12-18T00:38:53;19.70;46.00
77177;DHT22;66158;44.744;16.712;2022-12-18T00:41:20;19.70;46.10
77177;DHT22;66158;44.744;16.712;2022-12-18T00:44:05;19.70;46.10
77177;DHT22;66158;44.744;16.712;2022-12-18T00:46:31;19.60;46.20
77177;DHT22;66158;44.744;16.712;2022-12-18T00:48:57;19.60;46.20
77177;DHT22;66158;44.744;16.712;2022-12-18T00:51:24;19.50;46.20
77177;DHT22;66158;44.744;16.712;2022-12-18T00:53:50;19.50;46.30
77177;DHT22;66158;44.744;16.712;2022-12-18T00:56:15;19.50;46.30
77177;DHT22;66158;44.744;16.712;2022-12-18T00:58:41;19.40;46.30
77177;DHT22;66158;44.744;16.712;2022-12-18T01:01:07;19.40;46.30
77177;DHT22;66158;44.744;16.712;2022-12-18T01:03:33;19.40;46.40
77177;DHT22;66158;44.744;16.712;2022-12-18T01:06:04;19.30;46.40
77177;DHT22;66158;44.744;16.712;2022-12-18T01:08:30;19.30;46.50
77177;DHT22;66158;44.744;16.712;2022-12-18T01:10:56;19.30;46.50
77177;DHT22;66158;44.744;16.712;2022-12-18T01:13:21;19.20;46.40
77177;DHT22;66158;44.744;16.712;2022-12-18T01:15:49;19.20;46.50
77177;DHT22;66158;44.744;16.712;2022-12-18T01:18:15;19.20;46.50
77177;DHT22;66158;44.744;16.712;2022-12-18T01:20:40;19.10;46.50
77177;DHT22;66158;44.744;16.712;2022-12-18T01:23:06;19.10;47.10
77177;DHT22;66158;44.744;16.712;2022-12-18T01:25:32;19.10;46.60
77177;DHT22;66158;44.744;16.712;2022-12-18T01:27:58;19.10;46.60
77177;DHT22;66158;44.744;16.712;2022-12-18T01:30:23;19.00;46.60
77177;DHT22;66158;44.744;16.712;2022-12-18T01:32:49;19.00;46.60
77177;DHT22;66158;44.744;16.712;2022-12-18T01:35:15;19.00;46.60
77177;DHT22;66158;44.744;16.712;2022-12-18T01:37:40;19.00;46.70
77177;DHT22;66158;44.744;16.712;2022-12-18T01:40:07;19.00;46.90
77177;DHT22;66158;44.744;16.712;2022-12-18T01:42:33;18.90;46.90
77177;DHT22;66158;44.744;16.712;2022-12-18T01:50:24;18.80;46.80
77177;DHT22;66158;44.744;16.712;2022-12-18T01:53:05;18.90;46.90
77177;DHT22;66158;44.744;16.712;2022-12-18T01:55:37;18.90;46.70
77177;DHT22;66158;44.744;16.712;2022-12-18T01:58:04;18.80;46.90
77177;DHT22;66158;44.744;16.712;2022-12-18T02:00:30;18.80;46.90
77177;DHT22;66158;44.744;16.712;2022-12-18T02:02:56;18.70;46.80
77177;DHT22;66158;44.744;16.712;2022-12-18T02:08:10;18.70;47.40
77177;DHT22;66158;44.744;16.712;2022-12-18T02:27:59;18.60;46.80
77177;DHT22;66158;44.744;16.712;2022-12-18T02:30:27;18.60;46.70
77177;DHT22;66158;44.744;16.712;2022-12-18T02:32:56;18.50;46.70
77177;DHT22;66158;44.744;16.712;2022-12-18T02:35:29;18.50;46.70
77177;DHT22;66158;44.744;16.712;2022-12-18T02:37:55;18.50;46.70
77177;DHT22;66158;44.744;16.712;2022-12-18T02:40:24;18.50;46.70
77177;DHT22;66158;44.744;16.712;2022-12-18T02:42:51;18.50;46.70
77177;DHT22;66158;44.744;16.712;2022-12-18T02:45:17;18.50;46.70
77177;DHT22;66158;44.744;16.712;2022-12-18T02:47:46;18.50;46.70
77177;DHT22;66158;44.744;16.712;2022-12-18T02:53:17;18.40;46.70
77177;DHT22;66158;44.744;16.712;2022-12-18T02:56:13;18.40;46.70
77177;DHT22;66158;44.744;16.712;2022-12-18T02:59:02;18.40;46.70
77177;DHT22;66158;44.744;16.712;2022-12-18T03:01:52;18.40;46.70
77177;DHT22;66158;44.744;16.712;2022-12-18T03:04:26;18.40;46.70
77177;DHT22;66158;44.744;16.712;2022-12-18T03:06:57;18.30;46.60
77177;DHT22;66158;44.744;16.712;2022-12-18T03:09:29;18.30;46.60
77177;DHT22;66158;44.744;16.712;2022-12-18T03:12:09;18.30;46.60
77177;DHT22;66158;44.744;16.712;2022-12-18T03:15:19;18.30;46.60
77177;DHT22;66158;44.744;16.712;2022-12-18T03:18:20;18.30;46.60
77177;DHT22;66158;44.744;16.712;2022-12-18T03:20:49;18.30;46.50
77177;DHT22;66158;44.744;16.712;2022-12-18T03:23:21;18.20;46.50
77177;DHT22;66158;44.744;16.712;2022-12-18T03:25:50;18.20;46.50
77177;DHT22;66158;44.744;16.712;2022-12-18T03:28:20;18.20;46.50
77177;DHT22;66158;44.744;16.712;2022-12-18T03:30:49;18.20;46.50
77177;DHT22;66158;44.744;16.712;2022-12-18T03:33:40;18.20;46.40
77177;DHT22;66158;44.744;16.712;2022-12-18T03:36:07;18.20;46.50
77177;DHT22;66158;44.744;16.712;2022-12-18T03:38:33;18.20;46.60
77177;DHT22;66158;44.744;16.712;2022-12-18T03:40:59;18.10;46.40
77177;DHT22;66158;44.744;16.712;2022-12-18T03:46:33;18.10;46.40
77177;DHT22;66158;44.744;16.712;2022-12-18T03:49:05;18.10;46.40
77177;DHT22;66158;44.744;16.712;2022-12-18T03:51:48;18.10;46.40
77177;DHT22;66158;44.744;16.712;2022-12-18T03:54:16;18.10;46.40
77177;DHT22;66158;44.744;16.712;2022-12-18T03:56:48;18.10;46.30
77177;DHT22;66158;44.744;16.712;2022-12-18T03:59:16;18.10;46.30
77177;DHT22;66158;44.744;16.712;2022-12-18T04:01:47;18.10;46.30
77177;DHT22;66158;44.744;16.712;2022-12-18T04:04:15;18.00;46.30
77177;DHT22;66158;44.744;16.712;2022-12-18T04:06:43;18.00;46.30
77177;DHT22;66158;44.744;16.712;2022-12-18T04:09:09;18.00;46.30
77177;DHT22;66158;44.744;16.712;2022-12-18T04:11:35;18.00;46.30
77177;DHT22;66158;44.744;16.712;2022-12-18T04:14:01;18.00;46.30
77177;DHT22;66158;44.744;16.712;2022-12-18T04:16:27;18.00;46.40
77177;DHT22;66158;44.744;16.712;2022-12-18T04:18:53;18.00;46.30
77177;DHT22;66158;44.744;16.712;2022-12-18T04:21:20;18.00;46.30
77177;DHT22;66158;44.744;16.712;2022-12-18T04:23:46;18.00;46.30
77177;DHT22;66158;44.744;16.712;2022-12-18T04:26:12;17.90;46.20
77177;DHT22;66158;44.744;16.712;2022-12-18T04:28:37;17.90;46.20
77177;DHT22;66158;44.744;16.712;2022-12-18T04:31:03;17.90;46.20
77177;DHT22;66158;44.744;16.712;2022-12-18T04:33:38;17.90;46.70
77177;DHT22;66158;44.744;16.712;2022-12-18T04:36:04;17.90;46.20
77177;DHT22;66158;44.744;16.712;2022-12-18T04:38:30;17.90;46.20
77177;DHT22;66158;44.744;16.712;2022-12-18T04:40:56;17.90;46.30
77177;DHT22;66158;44.744;16.712;2022-12-18T04:43:22;17.90;46.20
77177;DHT22;66158;44.744;16.712;2022-12-18T04:45:47;17.90;46.20
77177;DHT22;66158;44.744;16.712;2022-12-18T04:48:13;17.80;46.20
77177;DHT22;66158;44.744;16.712;2022-12-18T04:50:39;17.80;46.10
77177;DHT22;66158;44.744;16.712;2022-12-18T04:53:05;17.80;46.20
77177;DHT22;66158;44.744;16.712;2022-12-18T04:55:30;17.80;46.20
77177;DHT22;66158;44.744;16.712;2022-12-18T04:57:56;17.80;46.20
77177;DHT22;66158;44.744;16.712;2022-12-18T05:00:22;17.80;46.20
77177;DHT22;66158;44.744;16.712;2022-12-18T05:02:48;17.80;46.20
77177;DHT22;66158;44.744;16.712;2022-12-18T05:05:14;17.80;46.20
77177;DHT22;66158;44.744;16.712;2022-12-18T05:07:40;17.80;46.10
77177;DHT22;66158;44.744;16.712;2022-12-18T05:10:09;17.80;46.10
77177;DHT22;66158;44.744;16.712;2022-12-18T05:12:35;17.80;46.10
77177;DHT22;66158;44.744;16.712;2022-12-18T05:15:21;17.80;46.10
77177;DHT22;66158;44.744;16.712;2022-12-18T05:17:46;17.80;46.10
77177;DHT22;66158;44.744;16.712;2022-12-18T05:20:12;17.70;46.10
77177;DHT22;66158;44.744;16.712;2022-12-18T05:22:38;17.70;46.00
77177;DHT22;66158;44.744;16.712;2022-12-18T05:25:04;17.70;46.00
77177;DHT22;66158;44.744;16.712;2022-12-18T05:27:30;17.70;46.00
77177;DHT22;66158;44.744;16.712;2022-12-18T05:29:56;17.70;46.00
77177;DHT22;66158;44.744;16.712;2022-12-18T05:32:21;17.70;46.00
77177;DHT22;66158;44.744;16.712;2022-12-18T05:34:47;17.70;46.00
77177;DHT22;66158;44.744;16.712;2022-12-18T05:37:13;17.70;45.90
77177;DHT22;66158;44.744;16.712;2022-12-18T05:39:38;17.70;45.90
77177;DHT22;66158;44.744;16.712;2022-12-18T05:42:04;17.70;45.80
77177;DHT22;66158;44.744;16.712;2022-12-18T05:44:30;17.70;45.80
77177;DHT22;66158;44.744;16.712;2022-12-18T05:46:56;17.70;46.40
77177;DHT22;66158;44.744;16.712;2022-12-18T05:49:21;17.70;45.80
77177;DHT22;66158;44.744;16.712;2022-12-18T05:51:47;17.70;45.70
77177;DHT22;66158;44.744;16.712;2022-12-18T05:54:13;17.70;45.60
77177;DHT22;66158;44.744;16.712;2022-12-18T05:56:38;17.70;45.60
77177;DHT22;66158;44.744;16.712;2022-12-18T05:59:04;17.70;45.60
77177;DHT22;66158;44.744;16.712;2022-12-18T06:01:30;17.70;45.60
77177;DHT22;66158;44.744;16.712;2022-12-18T06:03:56;17.70;45.50
77177;DHT22;66158;44.744;16.712;2022-12-18T06:06:27;17.70;45.50
77177;DHT22;66158;44.744;16.712;2022-12-18T06:08:53;17.70;45.40
77177;DHT22;66158;44.744;16.712;2022-12-18T06:11:22;17.70;45.40
77177;DHT22;66158;44.744;16.712;2022-12-18T06:13:55;17.70;45.40
77177;DHT22;66158;44.744;16.712;2022-12-18T06:16:21;17.70;45.30
77177;DHT22;66158;44.744;16.712;2022-12-18T06:18:47;17.70;45.30
77177;DHT22;66158;44.744;16.712;2022-12-18T06:21:12;17.70;45.20
77177;DHT22;66158;44.744;16.712;2022-12-18T06:23:38;17.70;45.30
77177;DHT22;66158;44.744;16.712;2022-12-18T06:26:11;17.70;45.40
77177;DHT22;66158;44.744;16.712;2022-12-18T06:28:38;17.70;45.40
77177;DHT22;66158;44.744;16.712;2022-12-18T06:31:05;17.60;45.30
77177;DHT22;66158;44.744;16.712;2022-12-18T06:33:31;17.70;45.40
77177;DHT22;66158;44.744;16.712;2022-12-18T06:36:02;17.60;45.30
77177;DHT22;66158;44.744;16.712;2022-12-18T06:38:28;17.60;45.30
77177;DHT22;66158;44.744;16.712;2022-12-18T06:40:54;17.60;45.30
77177;DHT22;66158;44.744;16.712;2022-12-18T06:43:20;17.60;45.30
77177;DHT22;66158;44.744;16.712;2022-12-18T06:45:45;17.60;45.30
77177;DHT22;66158;44.744;16.712;2022-12-18T06:48:14;17.60;45.30
77177;DHT22;66158;44.744;16.712;2022-12-18T06:50:42;17.60;45.30
77177;DHT22;66158;44.744;16.712;2022-12-18T06:53:08;17.60;45.30
77177;DHT22;66158;44.744;16.712;2022-12-18T06:55:34;17.60;45.30
77177;DHT22;66158;44.744;16.712;2022-12-18T06:57:59;17.60;45.40
77177;DHT22;66158;44.744;16.712;2022-12-18T07:00:25;17.60;45.30
77177;DHT22;66158;44.744;16.712;2022-12-18T07:02:51;17.60;45.30
77177;DHT22;66158;44.744;16.712;2022-12-18T07:05:17;17.60;45.30
77177;DHT22;66158;44.744;16.712;2022-12-18T07:07:42;17.60;45.30
77177;DHT22;66158;44.744;16.712;2022-12-18T07:10:08;17.60;45.20
77177;DHT22;66158;44.744;16.712;2022-12-18T07:12:34;17.60;45.20
77177;DHT22;66158;44.744;16.712;2022-12-18T07:15:00;17.60;45.20
77177;DHT22;66158;44.744;16.712;2022-12-18T07:17:26;17.60;45.20
77177;DHT22;66158;44.744;16.712;2022-12-18T07:19:52;17.60;45.30
77177;DHT22;66158;44.744;16.712;2022-12-18T07:22:18;17.60;45.20
77177;DHT22;66158;44.744;16.712;2022-12-18T07:24:43;17.60;45.10
77177;DHT22;66158;44.744;16.712;2022-12-18T07:27:09;17.60;45.10
77177;DHT22;66158;44.744;16.712;2022-12-18T07:29:35;17.60;45.10
77177;DHT22;66158;44.744;16.712;2022-12-18T07:32:00;17.60;45.10
77177;DHT22;66158;44.744;16.712;2022-12-18T07:34:26;17.60;45.00
77177;DHT22;66158;44.744;16.712;2022-12-18T07:36:52;17.60;45.00
77177;DHT22;66158;44.744;16.712;2022-12-18T07:39:18;17.60;44.90
77177;DHT22;66158;44.744;16.712;2022-12-18T07:41:44;17.60;44.90
77177;DHT22;66158;44.744;16.712;2022-12-18T07:44:29;17.60;44.90
77177;DHT22;66158;44.744;16.712;2022-12-18T07:46:55;17.60;44.90
77177;DHT22;66158;44.744;16.712;2022-12-18T07:49:21;17.70;44.90
77177;DHT22;66158;44.744;16.712;2022-12-18T07:51:46;17.60;44.80
77177;DHT22;66158;44.744;16.712;2022-12-18T07:54:15;17.60;44.90
77177;DHT22;66158;44.744;16.712;2022-12-18T07:56:41;17.60;44.80
77177;DHT22;66158;44.744;16.712;2022-12-18T07:59:07;17.60;44.70
77177;DHT22;66158;44.744;16.712;2022-12-18T08:01:33;17.70;44.80
77177;DHT22;66158;44.744;16.712;2022-12-18T08:03:59;17.70;44.80
77177;DHT22;66158;44.744;16.712;2022-12-18T08:06:25;17.60;44.70
77177;DHT22;66158;44.744;16.712;2022-12-18T08:08:52;17.60;44.70
77177;DHT22;66158;44.744;16.712;2022-12-18T08:11:18;17.60;44.70
77177;DHT22;66158;44.744;16.712;2022-12-18T08:13:44;17.60;44.70
77177;DHT22;66158;44.744;16.712;2022-12-18T08:16:10;17.70;44.70
77177;DHT22;66158;44.744;16.712;2022-12-18T08:18:37;17.70;44.70
77177;DHT22;66158;44.744;16.712;2022-12-18T08:23:38;17.60;44.60
77177;DHT22;66158;44.744;16.712;2022-12-18T08:26:04;17.60;44.60
77177;DHT22;66158;44.744;16.712;2022-12-18T08:28:30;17.60;44.50
77177;DHT22;66158;44.744;16.712;2022-12-18T08:30:55;17.60;44.60
77177;DHT22;66158;44.744;16.712;2022-12-18T08:33:21;17.60;44.60
77177;DHT22;66158;44.744;16.712;2022-12-18T08:35:47;17.60;44.60
77177;DHT22;66158;44.744;16.712;2022-12-18T08:38:13;17.60;44.60
77177;DHT22;66158;44.744;16.712;2022-12-18T08:40:38;17.70;44.60
77177;DHT22;66158;44.744;16.712;2022-12-18T08:43:04;17.70;44.50
77177;DHT22;66158;44.744;16.712;2022-12-18T08:45:49;17.70;44.60
77177;DHT22;66158;44.744;16.712;2022-12-18T08:48:14;17.70;44.50
77177;DHT22;66158;44.744;16.712;2022-12-18T08:50:40;17.70;44.50
77177;DHT22;66158;44.744;16.712;2022-12-18T08:53:06;17.70;44.50
77177;DHT22;66158;44.744;16.712;2022-12-18T08:55:32;17.70;44.50
77177;DHT22;66158;44.744;16.712;2022-12-18T08:57:57;17.80;44.50
77177;DHT22;66158;44.744;16.712;2022-12-18T09:00:23;17.80;44.30
77177;DHT22;66158;44.744;16.712;2022-12-18T09:02:49;17.80;44.30
77177;DHT22;66158;44.744;16.712;2022-12-18T09:05:15;17.90;44.20
77177;DHT22;66158;44.744;16.712;2022-12-18T09:07:41;17.90;44.10
77177;DHT22;66158;44.744;16.712;2022-12-18T09:10:07;17.90;44.00
77177;DHT22;66158;44.744;16.712;2022-12-18T09:12:32;18.00;43.90
77177;DHT22;66158;44.744;16.712;2022-12-18T09:14:59;18.00;43.90
77177;DHT22;66158;44.744;16.712;2022-12-18T09:17:25;18.10;43.90
77177;DHT22;66158;44.744;16.712;2022-12-18T09:19:50;18.10;43.70
77177;DHT22;66158;44.744;16.712;2022-12-18T09:22:16;18.20;43.40
77177;DHT22;66158;44.744;16.712;2022-12-18T09:24:42;18.30;43.30
77177;DHT22;66158;44.744;16.712;2022-12-18T09:27:08;18.30;43.20
77177;DHT22;66158;44.744;16.712;2022-12-18T09:29:34;18.40;43.10
77177;DHT22;66158;44.744;16.712;2022-12-18T09:31:59;18.40;43.00
77177;DHT22;66158;44.744;16.712;2022-12-18T09:34:25;18.40;42.90
77177;DHT22;66158;44.744;16.712;2022-12-18T09:36:51;18.40;42.80
77177;DHT22;66158;44.744;16.712;2022-12-18T09:39:17;18.40;43.20
77177;DHT22;66158;44.744;16.712;2022-12-18T09:41:54;18.30;43.30
77177;DHT22;66158;44.744;16.712;2022-12-18T09:44:36;18.30;43.30
77177;DHT22;66158;44.744;16.712;2022-12-18T09:47:14;18.30;43.20
77177;DHT22;66158;44.744;16.712;2022-12-18T09:49:51;18.40;43.10
77177;DHT22;66158;44.744;16.712;2022-12-18T09:52:37;18.50;43.00
77177;DHT22;66158;44.744;16.712;2022-12-18T09:55:12;18.50;42.70
77177;DHT22;66158;44.744;16.712;2022-12-18T09:57:47;18.60;42.70
77177;DHT22;66158;44.744;16.712;2022-12-18T10:00:21;18.60;42.70
77177;DHT22;66158;44.744;16.712;2022-12-18T10:02:47;18.50;42.90
77177;DHT22;66158;44.744;16.712;2022-12-18T10:05:17;18.50;42.80
77177;DHT22;66158;44.744;16.712;2022-12-18T10:13:06;18.50;42.70
77177;DHT22;66158;44.744;16.712;2022-12-18T10:18:29;18.60;42.40
77177;DHT22;66158;44.744;16.712;2022-12-18T10:21:05;18.60;42.50
77177;DHT22;66158;44.744;16.712;2022-12-18T10:26:11;18.70;42.30
77177;DHT22;66158;44.744;16.712;2022-12-18T10:28:40;18.80;42.50
77177;DHT22;66158;44.744;16.712;2022-12-18T10:31:17;18.80;42.60
77177;DHT22;66158;44.744;16.712;2022-12-18T10:33:43;18.70;42.70
77177;DHT22;66158;44.744;16.712;2022-12-18T10:36:09;18.80;42.60
77177;DHT22;66158;44.744;16.712;2022-12-18T10:38:35;18.70;42.50
77177;DHT22;66158;44.744;16.712;2022-12-18T10:41:08;18.80;42.40
77177;DHT22;66158;44.744;16.712;2022-12-18T10:44:20;18.80;42.40
77177;DHT22;66158;44.744;16.712;2022-12-18T10:46:49;18.80;42.50
77177;DHT22;66158;44.744;16.712;2022-12-18T10:49:26;18.80;42.40
77177;DHT22;66158;44.744;16.712;2022-12-18T10:52:22;18.80;42.30
77177;DHT22;66158;44.744;16.712;2022-12-18T10:54:55;18.90;42.40
77177;DHT22;66158;44.744;16.712;2022-12-18T10:57:38;18.90;42.20
77177;DHT22;66158;44.744;16.712;2022-12-18T11:00:22;18.90;42.20
77177;DHT22;66158;44.744;16.712;2022-12-18T11:02:49;18.90;42.40
77177;DHT22;66158;44.744;16.712;2022-12-18T11:05:27;18.90;42.60
77177;DHT22;66158;44.744;16.712;2022-12-18T11:07:53;18.90;42.40
77177;DHT22;66158;44.744;16.712;2022-12-18T11:10:40;18.90;42.50
77177;DHT22;66158;44.744;16.712;2022-12-18T11:13:20;18.80;42.50
77177;DHT22;66158;44.744;16.712;2022-12-18T11:15:47;18.80;42.60
77177;DHT22;66158;44.744;16.712;2022-12-18T11:20:58;18.90;42.60
77177;DHT22;66158;44.744;16.712;2022-12-18T11:23:26;18.80;42.90
77177;DHT22;66158;44.744;16.712;2022-12-18T11:26:00;18.70;42.80
77177;DHT22;66158;44.744;16.712;2022-12-18T11:31:28;18.60;42.90
77177;DHT22;66158;44.744;16.712;2022-12-18T11:34:16;18.70;42.90
77177;DHT22;66158;44.744;16.712;2022-12-18T11:36:46;18.60;42.90
77177;DHT22;66158;44.744;16.712;2022-12-18T11:42:12;18.50;42.90
77177;DHT22;66158;44.744;16.712;2022-12-18T11:47:37;18.50;43.10
77177;DHT22;66158;44.744;16.712;2022-12-18T11:50:14;18.40;43.10
77177;DHT22;66158;44.744;16.712;2022-12-18T11:52:41;18.40;43.10
77177;DHT22;66158;44.744;16.712;2022-12-18T11:55:41;18.40;43.00
77177;DHT22;66158;44.744;16.712;2022-12-18T11:58:47;18.40;43.00
77177;DHT22;66158;44.744;16.712;2022-12-18T12:09:28;18.30;43.00
77177;DHT22;66158;44.744;16.712;2022-12-18T12:12:05;18.30;43.10
77177;DHT22;66158;44.744;16.712;2022-12-18T12:17:43;18.20;43.10
77177;DHT22;66158;44.744;16.712;2022-12-18T12:25:28;18.20;43.20
77177;DHT22;66158;44.744;16.712;2022-12-18T12:33:44;18.10;43.40
77177;DHT22;66158;44.744;16.712;2022-12-18T12:39:07;18.10;43.40
77177;DHT22;66158;44.744;16.712;2022-12-18T12:41:37;18.00;43.40
77177;DHT22;66158;44.744;16.712;2022-12-18T12:44:27;18.00;43.90
77177;DHT22;66158;44.744;16.712;2022-12-18T12:46:59;18.00;43.50
77177;DHT22;66158;44.744;16.712;2022-12-18T12:49:31;18.00;43.50
77177;DHT22;66158;44.744;16.712;2022-12-18T12:52:05;18.00;43.50
77177;DHT22;66158;44.744;16.712;2022-12-18T12:54:33;18.00;43.50
77177;DHT22;66158;44.744;16.712;2022-12-18T13:02:41;18.00;43.00
77177;DHT22;66158;44.744;16.712;2022-12-18T13:05:23;18.10;43.00
77177;DHT22;66158;44.744;16.712;2022-12-18T13:08:03;18.10;43.20
77177;DHT22;66158;44.744;16.712;2022-12-18T13:10:35;18.20;43.10
77177;DHT22;66158;44.744;16.712;2022-12-18T13:13:11;18.20;42.90
77177;DHT22;66158;44.744;16.712;2022-12-18T13:15:50;18.20;42.80
77177;DHT22;66158;44.744;16.712;2022-12-18T13:18:28;18.20;42.80
77177;DHT22;66158;44.744;16.712;2022-12-18T13:31:00;18.20;42.40
77177;DHT22;66158;44.744;16.712;2022-12-18T13:39:08;18.20;42.70
77177;DHT22;66158;44.744;16.712;2022-12-18T13:41:33;18.20;43.00
77177;DHT22;66158;44.744;16.712;2022-12-18T13:46:47;18.30;43.00
77177;DHT22;66158;44.744;16.712;2022-12-18T13:51:44;18.20;43.20
77177;DHT22;66158;44.744;16.712;2022-12-18T13:57:00;18.30;43.20
77177;DHT22;66158;44.744;16.712;2022-12-18T13:59:39;18.30;43.30
77177;DHT22;66158;44.744;16.712;2022-12-18T14:02:25;18.20;43.20
77177;DHT22;66158;44.744;16.712;2022-12-18T14:04:51;18.20;43.30
77177;DHT22;66158;44.744;16.712;2022-12-18T14:07:26;18.20;43.40
77177;DHT22;66158;44.744;16.712;2022-12-18T14:09:55;18.20;43.30
77177;DHT22;66158;44.744;16.712;2022-12-18T14:12:27;18.20;43.30
77177;DHT22;66158;44.744;16.712;2022-12-18T14:15:35;18.20;43.30
77177;DHT22;66158;44.744;16.712;2022-12-18T14:18:21;18.20;43.40
77177;DHT22;66158;44.744;16.712;2022-12-18T14:20:49;18.20;43.40
77177;DHT22;66158;44.744;16.712;2022-12-18T14:25:58;18.20;43.60
77177;DHT22;66158;44.744;16.712;2022-12-18T14:28:25;18.20;43.60
77177;DHT22;66158;44.744;16.712;2022-12-18T14:30:52;18.20;43.60
77177;DHT22;66158;44.744;16.712;2022-12-18T14:33:23;18.20;43.60
77177;DHT22;66158;44.744;16.712;2022-12-18T14:43:24;18.10;43.60
77177;DHT22;66158;44.744;16.712;2022-12-18T14:45:50;18.10;43.60
77177;DHT22;66158;44.744;16.712;2022-12-18T14:48:22;18.10;43.60
77177;DHT22;66158;44.744;16.712;2022-12-18T14:51:03;18.10;43.60
77177;DHT22;66158;44.744;16.712;2022-12-18T14:53:37;18.10;43.60
77177;DHT22;66158;44.744;16.712;2022-12-18T14:56:12;18.10;43.60
77177;DHT22;66158;44.744;16.712;2022-12-18T14:58:39;18.00;43.50
77177;DHT22;66158;44.744;16.712;2022-12-18T15:01:18;18.00;43.50
77177;DHT22;66158;44.744;16.712;2022-12-18T15:03:44;18.00;43.40
77177;DHT22;66158;44.744;16.712;2022-12-18T15:09:00;18.00;43.40
77177;DHT22;66158;44.744;16.712;2022-12-18T15:11:27;18.00;43.40
77177;DHT22;66158;44.744;16.712;2022-12-18T15:13:53;18.00;43.40
77177;DHT22;66158;44.744;16.712;2022-12-18T15:16:18;17.90;43.40
77177;DHT22;66158;44.744;16.712;2022-12-18T15:18:44;17.90;43.40
77177;DHT22;66158;44.744;16.712;2022-12-18T15:21:19;17.90;43.40
77177;DHT22;66158;44.744;16.712;2022-12-18T15:23:53;18.00;43.50
77177;DHT22;66158;44.744;16.712;2022-12-18T15:26:20;17.90;43.50
77177;DHT22;66158;44.744;16.712;2022-12-18T15:33:44;17.90;43.60
77177;DHT22;66158;44.744;16.712;2022-12-18T15:36:16;17.90;43.60
77177;DHT22;66158;44.744;16.712;2022-12-18T15:38:46;17.80;43.40
77177;DHT22;66158;44.744;16.712;2022-12-18T15:41:17;17.80;43.40
77177;DHT22;66158;44.744;16.712;2022-12-18T15:43:45;17.80;43.50
77177;DHT22;66158;44.744;16.712;2022-12-18T15:46:14;17.80;43.40
77177;DHT22;66158;44.744;16.712;2022-12-18T15:48:45;17.80;43.40
77177;DHT22;66158;44.744;16.712;2022-12-18T15:51:18;17.80;43.60
77177;DHT22;66158;44.744;16.712;2022-12-18T15:53:46;17.80;43.60
77177;DHT22;66158;44.744;16.712;2022-12-18T15:56:14;17.80;43.60
77177;DHT22;66158;44.744;16.712;2022-12-18T15:58:59;17.80;43.50
77177;DHT22;66158;44.744;16.712;2022-12-18T16:01:30;17.80;43.60
77177;DHT22;66158;44.744;16.712;2022-12-18T16:03:56;17.70;43.50
77177;DHT22;66158;44.744;16.712;2022-12-18T16:06:23;17.70;43.40
77177;DHT22;66158;44.744;16.712;2022-12-18T16:08:49;17.70;43.40
77177;DHT22;66158;44.744;16.712;2022-12-18T16:11:30;17.70;43.50
77177;DHT22;66158;44.744;16.712;2022-12-18T16:14:22;17.70;43.50
77177;DHT22;66158;44.744;16.712;2022-12-18T16:16:54;17.70;43.60
77177;DHT22;66158;44.744;16.712;2022-12-18T16:19:21;17.70;43.50
77177;DHT22;66158;44.744;16.712;2022-12-18T16:21:47;17.70;43.60
77177;DHT22;66158;44.744;16.712;2022-12-18T16:24:22;17.70;43.60
77177;DHT22;66158;44.744;16.712;2022-12-18T16:26:49;17.70;43.50
77177;DHT22;66158;44.744;16.712;2022-12-18T16:29:17;17.70;43.60
77177;DHT22;66158;44.744;16.712;2022-12-18T16:31:43;17.70;43.50
77177;DHT22;66158;44.744;16.712;2022-12-18T16:34:18;17.60;43.40
77177;DHT22;66158;44.744;16.712;2022-12-18T16:36:48;17.70;43.50
77177;DHT22;66158;44.744;16.712;2022-12-18T16:39:14;17.70;43.50
77177;DHT22;66158;44.744;16.712;2022-12-18T16:41:40;17.70;43.70
77177;DHT22;66158;44.744;16.712;2022-12-18T16:44:06;17.70;43.60
77177;DHT22;66158;44.744;16.712;2022-12-18T16:46:32;17.80;43.70
77177;DHT22;66158;44.744;16.712;2022-12-18T16:48:58;17.80;43.70
77177;DHT22;66158;44.744;16.712;2022-12-18T16:51:25;17.80;43.80
77177;DHT22;66158;44.744;16.712;2022-12-18T16:53:52;17.90;44.30
77177;DHT22;66158;44.744;16.712;2022-12-18T16:56:19;17.90;44.50
77177;DHT22;66158;44.744;16.712;2022-12-18T16:58:57;17.90;44.60
77177;DHT22;66158;44.744;16.712;2022-12-18T17:01:24;18.00;44.70
77177;DHT22;66158;44.744;16.712;2022-12-18T17:03:54;18.00;44.70
77177;DHT22;66158;44.744;16.712;2022-12-18T17:06:24;18.00;44.60
77177;DHT22;66158;44.744;16.712;2022-12-18T17:09:01;18.00;44.80
77177;DHT22;66158;44.744;16.712;2022-12-18T17:11:29;18.10;44.80
77177;DHT22;66158;44.744;16.712;2022-12-18T17:13:56;18.10;44.70
77177;DHT22;66158;44.744;16.712;2022-12-18T19:41:33;19.60;42.10
77177;DHT22;66158;44.744;16.712;2022-12-18T19:44:00;19.70;42.20
77177;DHT22;66158;44.744;16.712;2022-12-18T19:46:28;19.60;42.20
77177;DHT22;66158;44.744;16.712;2022-12-18T19:48:54;19.60;42.20
77177;DHT22;66158;44.744;16.712;2022-12-18T19:51:24;19.60;42.00
77177;DHT22;66158;44.744;16.712;2022-12-18T19:53:53;19.50;42.60
77177;DHT22;66158;44.744;16.712;2022-12-18T19:56:22;19.40;42.20
77177;DHT22;66158;44.744;16.712;2022-12-18T19:58:51;19.30;42.20
77177;DHT22;66158;44.744;16.712;2022-12-18T20:01:20;19.30;42.30
77177;DHT22;66158;44.744;16.712;2022-12-18T20:03:47;19.20;42.30
77177;DHT22;66158;44.744;16.712;2022-12-18T20:06:17;19.20;42.40